Chipmans Point, Vermont
Current Conditions -  °F | °C
As of 8:15 PM on Sunday 23 Nov 2014 (Local Time) from K6B0 Reporting Station
Overcast Overcast  
Wind Chill: 50°   Ceiling: 4600
Heat Index: 50°   Visibility: 10mi
Dew Point: 40°   Wind: 0mph
Humidity: 67%   Direction: NA
Pressure: 30.02"   Gusts: NA
Location:  43.7849°N, 73.292°W
Report Text: K6B0 240115Z AUTO 00000KT 10SM SCT040 OVC046 10/04 A3002 RMK AO2 T01020043
Loading
Personal Weather Stations






























Interactive Weather Map New forecast layout! Learn more

10-Day Weather Forecast

Advertisements
Track Severe Weather on mobile